Time;durP1;ratioP1;P1;durP2;ratioP2;P2;SDS_P1;SDS_P2;PMS_P1;PMS_P2;Temp;Humidity;BMP_temperature;BMP_pressure;BME280_temperature;BME280_humidity;BME280_pressure;Samples;Min_cycle;Max_cycle;Signal;HPM_P1;HPM_P2
2021/03/26 00:01:16;;;;;;;11.18;5.70;;;;;;;4.89;60.50;99754.31;5062792;28;20037;-56
2021/03/26 00:03:43;;;;;;;9.50;5.63;;;;;;;4.85;60.71;99765.41;5063938;28;20083;-55
2021/03/26 00:06:17;;;;;;;6.55;4.82;;;;;;;4.88;60.40;99757.72;5063920;28;20044;-55
2021/03/26 00:08:44;;;;;;;7.85;5.20;;;;;;;4.83;60.33;99756.84;5063865;28;20045;-56
2021/03/26 00:11:11;;;;;;;7.82;4.80;;;;;;;4.76;60.74;99738.03;5063521;28;20036;-55
2021/03/26 00:13:37;;;;;;;7.97;5.32;;;;;;;4.78;60.74;99756.84;5063254;28;20029;-56
2021/03/26 00:16:03;;;;;;;8.30;4.75;;;;;;;4.73;59.71;99760.22;5063647;28;20095;-55
2021/03/26 00:18:29;;;;;;;7.82;5.45;;;;;;;4.79;60.33;99760.28;5063898;28;20025;-56
2021/03/26 00:20:55;;;;;;;6.32;4.78;;;;;;;4.70;61.05;99757.66;5063700;28;20032;-55
2021/03/26 00:23:21;;;;;;;9.35;5.35;;;;;;;4.60;61.00;99761.91;5060360;28;20201;-55
2021/03/26 00:25:47;;;;;;;8.73;5.13;;;;;;;4.64;60.14;99764.47;5063230;28;20052;-55
2021/03/26 00:28:13;;;;;;;8.80;5.38;;;;;;;4.73;60.99;99765.38;5058210;28;20226;-55
2021/03/26 00:30:40;;;;;;;12.13;6.13;;;;;;;4.81;60.87;99761.13;5063014;28;20025;-56
2021/03/26 00:33:08;;;;;;;7.20;5.15;;;;;;;4.68;61.55;99757.66;5063337;28;20074;-55
2021/03/26 00:35:35;;;;;;;11.95;5.88;;;;;;;4.73;61.68;99765.38;5062929;28;20162;-56
2021/03/26 00:38:01;;;;;;;9.05;5.28;;;;;;;4.73;60.57;99757.66;5063341;28;20333;-57
2021/03/26 00:40:27;;;;;;;10.40;5.78;;;;;;;4.62;60.88;99761.06;5062908;28;20024;-56
2021/03/26 00:42:53;;;;;;;9.43;5.72;;;;;;;4.75;60.71;99761.13;5062929;28;20032;-55
2021/03/26 00:45:26;;;;;;;11.55;6.55;;;;;;;4.49;60.37;99724.25;5063027;28;20191;-55
2021/03/26 00:47:52;;;;;;;9.27;5.72;;;;;;;4.72;60.99;99761.06;5063052;28;20074;-56
2021/03/26 00:50:22;;;;;;;10.43;6.28;;;;;;;4.37;60.57;99702.84;5063039;28;20035;-55
2021/03/26 00:52:49;;;;;;;9.88;6.40;;;;;;;4.76;60.78;99767.94;5063059;28;20101;-56
2021/03/26 00:55:16;;;;;;;10.02;6.07;;;;;;;4.74;61.48;99769.66;5061798;28;20055;-55
2021/03/26 00:57:42;;;;;;;10.32;6.28;;;;;;;4.71;60.30;99759.38;5062979;28;20067;-55
2021/03/26 01:00:13;;;;;;;8.13;5.68;;;;;;;4.75;60.99;99766.25;5063011;28;21020;-56
2021/03/26 01:02:39;;;;;;;10.30;5.78;;;;;;;4.71;61.39;99760.22;5062886;28;20031;-56
2021/03/26 01:05:08;;;;;;;9.05;5.88;;;;;;;4.26;62.44;99703.66;5062984;28;20322;-56
2021/03/26 01:07:34;;;;;;;11.45;5.78;;;;;;;4.68;61.11;99751.69;5063243;28;20318;-56
2021/03/26 01:10:00;;;;;;;8.30;5.78;;;;;;;4.69;62.07;99750.81;5062809;28;20043;-56
2021/03/26 01:12:26;;;;;;;8.80;5.65;;;;;;;4.59;61.90;99755.03;5062367;28;20029;-56
2021/03/26 01:14:51;;;;;;;8.57;5.35;;;;;;;4.50;63.43;99755.88;5062582;28;20062;-56
2021/03/26 01:17:17;;;;;;;8.38;5.07;;;;;;;4.49;62.33;99760.16;5063002;28;20029;-56
2021/03/26 01:19:43;;;;;;;10.02;5.50;;;;;;;4.31;63.07;99754.94;5062798;28;20029;-55
2021/03/26 01:22:12;;;;;;;8.43;5.30;;;;;;;4.37;62.96;99774.63;5062220;28;20036;-56
2021/03/26 01:24:38;;;;;;;9.23;5.97;;;;;;;4.44;62.78;99760.97;5058034;28;20024;-56
2021/03/26 01:27:04;;;;;;;8.20;5.55;;;;;;;4.31;62.90;99747.25;5061414;28;20337;-56
2021/03/26 01:29:30;;;;;;;8.60;5.82;;;;;;;4.35;62.94;99766.91;5061947;28;20025;-55
2021/03/26 01:31:55;;;;;;;8.63;5.70;;;;;;;4.32;62.35;99766.91;5062284;28;20037;-56
2021/03/26 01:34:23;;;;;;;8.82;6.07;;;;;;;4.30;63.56;99766.91;5062558;28;20079;-55
2021/03/26 01:36:50;;;;;;;8.68;6.03;;;;;;;4.23;62.72;99762.59;5062545;28;20025;-55
2021/03/26 01:39:16;;;;;;;10.20;6.25;;;;;;;4.23;63.87;99774.53;5062720;28;20060;-55
2021/03/26 01:41:46;;;;;;;11.32;7.28;;;;;;;4.09;63.56;99757.38;5062417;28;20056;-55
2021/03/26 01:44:15;;;;;;;9.00;5.88;;;;;;;3.81;63.00;99705.09;5062132;28;20210;-57
2021/03/26 01:46:42;;;;;;;8.70;5.55;;;;;;;4.22;62.55;99770.25;5064167;28;20101;-57
2021/03/26 01:49:08;;;;;;;9.98;6.20;;;;;;;4.14;63.70;99772.78;5066393;28;20029;-56
2021/03/26 01:51:41;;;;;;;9.35;6.57;;;;;;;4.10;63.80;99761.63;5066034;28;20033;-57
2021/03/26 01:54:11;;;;;;;9.43;6.60;;;;;;;3.75;63.29;99705.09;5065784;28;20096;-55
2021/03/26 01:56:38;;;;;;;10.88;7.25;;;;;;;4.05;64.02;99765.06;5066529;28;20052;-55
2021/03/26 01:59:04;;;;;;;9.00;6.38;;;;;;;3.95;64.55;99757.28;5065998;28;20029;-55
2021/03/26 02:01:37;;;;;;;10.95;6.47;;;;;;;3.56;64.52;99710.06;5066274;28;20024;-55
2021/03/26 02:04:05;;;;;;;10.70;6.15;;;;;;;3.53;63.21;99704.06;5066184;28;20210;-55
2021/03/26 02:06:38;;;;;;;10.43;6.63;;;;;;;3.81;64.64;99764.03;5066345;28;20029;-56
2021/03/26 02:09:07;;;;;;;9.68;6.05;;;;;;;3.84;64.31;99774.28;5066052;28;20044;-55
2021/03/26 02:11:41;;;;;;;8.45;6.15;;;;;;;3.49;64.92;99712.56;5066012;28;20032;-54
2021/03/26 02:14:13;;;;;;;9.52;5.93;;;;;;;3.47;64.75;99714.25;5065520;28;20029;-54
2021/03/26 02:16:39;;;;;;;9.38;5.65;;;;;;;3.72;64.93;99774.19;5066173;28;20040;-55
2021/03/26 02:19:29;;;;;;;11.10;6.07;;;;;;;3.34;64.59;99713.31;5066070;28;20040;-54
2021/03/26 02:21:55;;;;;;;10.70;6.43;;;;;;;3.63;64.97;99768.16;5065690;28;20024;-55
2021/03/26 02:24:23;;;;;;;13.05;6.90;;;;;;;3.66;64.21;99767.31;5063483;28;20100;-55
2021/03/26 02:26:52;;;;;;;10.13;6.22;;;;;;;3.37;64.22;99732.09;5063895;28;20067;-55
2021/03/26 02:29:27;;;;;;;10.80;6.25;;;;;;;3.19;64.41;99720.00;5065403;28;20033;-56
2021/03/26 02:32:00;;;;;;;11.75;6.90;;;;;;;3.41;64.32;99751.75;5064319;28;20029;-55
2021/03/26 02:34:28;;;;;;;10.13;5.97;;;;;;;3.47;65.03;99776.56;5065445;28;20052;-56
2021/03/26 02:36:58;;;;;;;9.23;5.43;;;;;;;3.44;64.80;99795.28;5065803;28;20078;-55
2021/03/26 02:39:43;;;;;;;10.88;6.40;;;;;;;3.43;65.51;99796.16;5065881;28;20308;-56
2021/03/26 02:42:22;;;;;;;11.63;6.32;;;;;;;3.30;65.48;99770.44;5065225;28;20059;-56
2021/03/26 02:45:15;;;;;;;9.07;6.00;;;;;;;3.44;64.96;99794.44;5065005;28;20029;-56
2021/03/26 02:47:53;;;;;;;9.43;5.70;;;;;;;3.34;65.23;99803.75;5060842;28;20036;-56
2021/03/26 02:50:54;;;;;;;10.55;6.07;;;;;;;3.31;65.00;99797.72;5065809;28;20028;-56
2021/03/26 02:53:34;;;;;;;9.95;6.18;;;;;;;3.31;64.85;99795.16;5064756;28;20036;-56
2021/03/26 02:56:17;;;;;;;9.95;6.30;;;;;;;3.30;65.33;99794.31;5064007;28;20092;-55
2021/03/26 02:58:49;;;;;;;8.38;5.70;;;;;;;3.08;65.28;99771.06;5064419;28;20211;-56
2021/03/26 03:01:45;;;;;;;10.48;5.95;;;;;;;2.99;65.29;99770.97;5057243;28;20029;-55
2021/03/26 03:04:31;;;;;;;9.88;6.70;;;;;;;3.20;65.91;99800.19;5064668;28;20264;-56
2021/03/26 03:07:25;;;;;;;9.30;5.85;;;;;;;3.15;66.07;99796.72;5065249;28;20217;-55
2021/03/26 03:09:56;;;;;;;9.90;5.85;;;;;;;3.16;65.87;99788.19;5064919;28;20044;-57
2021/03/26 03:12:33;;;;;;;9.32;5.65;;;;;;;3.16;65.98;99796.72;5060943;28;20021;-56
2021/03/26 03:15:14;;;;;;;11.90;6.95;;;;;;;3.20;65.34;99800.19;5064217;28;20114;-56
2021/03/26 03:17:42;;;;;;;10.93;6.50;;;;;;;3.13;66.71;99796.69;5064915;28;20036;-56
2021/03/26 03:20:42;;;;;;;7.82;5.97;;;;;;;3.12;66.28;99818.00;5065057;28;20207;-55
2021/03/26 03:23:16;;;;;;;10.52;6.20;;;;;;;3.08;65.99;99788.13;5064241;28;21172;-55
2021/03/26 03:25:43;;;;;;;10.32;6.10;;;;;;;3.18;65.61;99796.72;5058572;28;20082;-55
2021/03/26 03:28:41;;;;;;;10.40;6.20;;;;;;;2.78;66.13;99735.81;5064404;28;20036;-56
2021/03/26 03:31:29;;;;;;;8.98;5.97;;;;;;;3.05;66.39;99796.63;5063480;28;20052;-55
2021/03/26 03:34:13;;;;;;;10.73;6.18;;;;;;;3.04;67.27;99794.91;5064350;28;20052;-55
2021/03/26 03:37:04;;;;;;;10.88;6.18;;;;;;;2.81;66.27;99769.06;5064808;28;20033;-55
2021/03/26 03:39:42;;;;;;;10.95;6.55;;;;;;;3.05;66.04;99788.94;5058594;28;20025;-54
2021/03/26 03:42:47;;;;;;;11.45;7.13;;;;;;;3.07;66.95;99792.38;5063612;28;20195;-56
2021/03/26 03:45:50;;;;;;;12.30;6.70;;;;;;;2.89;66.67;99775.16;5063917;28;20098;-55
2021/03/26 03:48:59;;;;;;;10.85;6.35;;;;;;;3.09;66.73;99797.50;5064195;28;20036;-55
2021/03/26 03:51:50;;;;;;;11.02;6.38;;;;;;;3.18;66.98;99797.63;5059832;28;20040;-55
2021/03/26 03:54:32;;;;;;;13.65;7.47;;;;;;;2.71;67.12;99727.19;5063597;28;20096;-55
2021/03/26 03:57:01;;;;;;;;;;;;;;;3.19;66.91;99804.47;5064770;28;20028;-55
2021/03/26 03:59:40;;;;;;;9.95;6.53;;;;;;;3.21;66.33;99805.31;5064142;28;19904;-55
2021/03/26 04:02:21;;;;;;;13.10;6.75;;;;;;;2.98;66.23;99751.34;5064268;28;20318;-55
2021/03/26 04:05:00;;;;;;;11.57;6.95;;;;;;;2.94;66.44;99747.03;5063886;28;20029;-54
2021/03/26 04:07:38;;;;;;;12.07;7.40;;;;;;;3.42;66.15;99808.91;5063834;28;20028;-55
2021/03/26 04:10:10;;;;;;;13.63;6.90;;;;;;;3.14;65.75;99752.38;5062601;28;20133;-55
2021/03/26 04:12:38;;;;;;;;;;;;;;;3.49;66.37;99813.25;5064148;28;20036;-55
2021/03/26 04:15:29;;;;;;;12.88;7.38;;;;;;;3.20;66.14;99754.97;5062945;28;19911;-56
2021/03/26 04:18:16;;;;;;;11.63;7.20;;;;;;;3.70;66.17;99806.63;5063676;28;20033;-55
2021/03/26 04:20:49;;;;;;;14.70;7.43;;;;;;;3.77;65.90;99805.81;5063344;28;20045;-55
2021/03/26 04:23:25;;;;;;;13.32;7.82;;;;;;;3.57;65.82;99769.81;5062587;28;20025;-55
2021/03/26 04:26:21;;;;;;;12.40;7.80;;;;;;;3.92;65.76;99816.19;5062179;28;20310;-56
2021/03/26 04:28:52;;;;;;;12.93;7.30;;;;;;;3.96;64.79;99805.13;5059384;28;20298;-55
2021/03/26 04:31:27;;;;;;;13.90;8.63;;;;;;;4.02;64.84;99800.88;5055489;28;20062;-55
2021/03/26 04:33:54;;;;;;;12.52;7.57;;;;;;;4.24;65.04;99810.44;5060229;28;20202;-57
2021/03/26 04:36:31;;;;;;;15.75;8.70;;;;;;;3.94;64.03;99758.13;5058979;28;20037;-56
2021/03/26 04:39:05;;;;;;;13.45;8.13;;;;;;;4.43;64.79;99833.63;5063331;28;20029;-55
2021/03/26 04:41:50;;;;;;;13.13;8.02;;;;;;;4.59;64.07;99817.47;5063131;28;20238;-55
2021/03/26 04:44:31;;;;;;;14.48;7.90;;;;;;;4.68;63.41;99824.34;5055953;28;20035;-55
2021/03/26 04:47:19;;;;;;;15.27;8.70;;;;;;;4.73;63.63;99820.13;5062542;28;20031;-56
2021/03/26 04:49:51;;;;;;;22.70;11.10;;;;;;;4.74;63.70;99821.81;5062635;28;20253;-56
2021/03/26 04:52:33;;;;;;;15.40;9.90;;;;;;;4.78;63.47;99791.91;5062965;28;20333;-57
2021/03/26 04:55:04;;;;;;;17.77;10.13;;;;;;;4.54;63.68;99754.19;5062110;28;20040;-56
2021/03/26 04:57:35;;;;;;;19.40;10.82;;;;;;;4.98;63.64;99794.53;5060760;28;20028;-56
2021/03/26 05:00:07;;;;;;;21.02;10.50;;;;;;;5.10;63.47;99814.25;5062906;28;20214;-56
2021/03/26 05:02:38;;;;;;;19.38;10.85;;;;;;;5.13;64.15;99830.53;5062679;28;20075;-56
2021/03/26 05:05:06;;;;;;;18.55;10.45;;;;;;;5.21;63.84;99825.41;5059776;28;20036;-56
2021/03/26 05:07:37;;;;;;;18.88;10.73;;;;;;;5.05;63.59;99850.16;5063129;28;20032;-56
2021/03/26 05:10:12;;;;;;;17.42;10.57;;;;;;;5.03;62.96;99804.81;5060168;28;20049;-56
2021/03/26 05:13:06;;;;;;;21.70;11.95;;;;;;;4.97;63.54;99837.31;5056906;28;20029;-56
2021/03/26 05:15:38;;;;;;;17.52;10.98;;;;;;;5.04;62.50;99833.03;5059730;28;20020;-56
2021/03/26 05:18:09;;;;;;;20.58;12.55;;;;;;;5.13;62.53;99845.03;5062228;28;20033;-56
2021/03/26 05:20:45;;;;;;;20.58;12.15;;;;;;;5.04;62.40;99835.63;5061855;28;20044;-56
2021/03/26 05:23:43;;;;;;;21.75;12.65;;;;;;;5.33;62.43;99845.09;5062007;28;20033;-56
2021/03/26 05:26:10;;;;;;;21.17;12.35;;;;;;;5.41;62.45;99855.41;5061166;28;20120;-56
2021/03/26 05:28:44;;;;;;;18.52;12.07;;;;;;;5.07;62.55;99794.53;5062451;28;20029;-56
2021/03/26 05:31:13;;;;;;;16.00;11.30;;;;;;;5.58;62.13;99843.44;5061965;28;20101;-56
2021/03/26 05:33:47;;;;;;;19.60;12.90;;;;;;;5.22;61.41;99795.47;5058474;28;20025;-56
2021/03/26 05:36:24;;;;;;;18.15;12.80;;;;;;;4.67;61.17;99720.03;5062350;28;20063;-57
2021/03/26 05:39:02;;;;;;;24.33;13.27;;;;;;;5.71;60.71;99854.59;5053391;28;20021;-57
2021/03/26 05:42:00;;;;;;;17.08;11.80;;;;;;;5.77;60.77;99848.59;5058916;28;20171;-56
2021/03/26 05:44:53;;;;;;;21.60;12.70;;;;;;;5.91;60.67;99852.03;5057480;28;20064;-56
2021/03/26 05:47:56;;;;;;;19.30;12.18;;;;;;;5.96;60.52;99858.03;5058379;28;20044;-56
2021/03/26 05:50:48;;;;;;;22.35;13.02;;;;;;;5.91;61.51;99844.31;5061914;28;20032;-55
2021/03/26 05:53:23;;;;;;;20.50;13.80;;;;;;;5.90;60.82;99847.78;5061994;28;20029;-56
2021/03/26 05:56:26;;;;;;;21.13;12.48;;;;;;;6.03;60.54;99854.66;5060083;28;20619;-56
2021/03/26 05:59:01;;;;;;;19.42;12.32;;;;;;;6.11;59.41;99859.78;5057796;28;20065;-56
2021/03/26 06:01:54;;;;;;;22.48;13.60;;;;;;;6.05;59.90;99858.06;5062236;28;20025;-56
2021/03/26 06:04:28;;;;;;;18.85;12.43;;;;;;;6.02;60.36;99854.66;5051046;28;20047;-56
2021/03/26 06:07:13;;;;;;;19.10;13.70;;;;;;;5.93;59.98;99855.47;5059809;28;20095;-56
2021/03/26 06:09:49;;;;;;;19.20;12.65;;;;;;;5.99;59.75;99850.38;5047700;28;20037;-57
2021/03/26 06:13:10;;;;;;;20.00;13.23;;;;;;;5.61;60.04;99788.66;5057167;28;20055;-57
2021/03/26 06:15:54;;;;;;;19.60;13.10;;;;;;;6.02;60.13;99850.34;5049277;28;20037;-56
2021/03/26 06:18:31;;;;;;;19.27;13.68;;;;;;;6.16;60.09;99857.22;5053814;28;20025;-56
2021/03/26 06:21:30;;;;;;;18.30;12.70;;;;;;;6.34;60.91;99852.06;5059716;28;20048;-57
2021/03/26 06:24:19;;;;;;;20.55;13.30;;;;;;;6.40;59.97;99846.06;5055169;28;20025;-57
2021/03/26 06:26:57;;;;;;;22.05;13.63;;;;;;;6.24;59.49;99847.78;5057798;28;20329;-55
2021/03/26 06:29:48;;;;;;;22.40;14.27;;;;;;;6.45;59.61;99840.91;5055539;28;20028;-56
2021/03/26 06:32:47;;;;;;;19.35;13.40;;;;;;;7.52;57.07;99834.41;5055613;28;20028;-55
2021/03/26 06:35:48;;;;;;;17.95;12.40;;;;;;;8.13;55.73;99840.81;5065672;28;20029;-55
2021/03/26 06:38:26;;;;;;;19.17;12.10;;;;;;;8.81;54.04;99835.00;5065143;28;20063;-56
2021/03/26 06:41:09;;;;;;;18.35;12.07;;;;;;;9.82;51.42;99837.06;5065751;28;20029;-56
2021/03/26 06:43:50;;;;;;;21.25;12.85;;;;;;;10.30;48.57;99844.03;5065905;28;20032;-56
2021/03/26 06:46:37;;;;;;;17.33;12.35;;;;;;;10.32;50.37;99849.19;5057294;28;20033;-55
2021/03/26 06:49:46;;;;;;;21.88;13.05;;;;;;;10.90;48.49;99848.97;5065665;28;20032;-55
2021/03/26 06:52:37;;;;;;;20.52;13.13;;;;;;;11.00;47.82;99859.13;5063560;28;20341;-56
2021/03/26 06:55:46;;;;;;;18.00;13.43;;;;;;;11.37;46.43;99852.28;5063288;28;20029;-55
2021/03/26 06:58:56;;;;;;;22.08;14.07;;;;;;;11.84;45.53;99845.19;5063511;28;20033;-57
2021/03/26 07:01:52;;;;;;;17.48;12.43;;;;;;;10.77;46.54;99807.75;5023788;28;20409;-56
2021/03/26 07:04:23;;;;;;;18.75;12.30;;;;;;;11.45;46.19;99847.81;5064093;28;20206;-55
2021/03/26 07:07:04;;;;;;;17.10;11.30;;;;;;;11.51;46.18;99845.06;5064638;28;20324;-56
2021/03/26 07:09:32;;;;;;;18.50;12.02;;;;;;;11.87;46.21;99842.50;5059302;28;20100;-56
2021/03/26 07:12:10;;;;;;;15.57;11.50;;;;;;;12.90;43.16;99841.56;5057258;28;20037;-56
2021/03/26 07:15:11;;;;;;;21.83;13.02;;;;;;;12.20;41.62;99795.84;5054413;28;20056;-57
2021/03/26 07:18:06;;;;;;;24.30;14.65;;;;;;;12.46;43.05;99817.69;5058949;28;20037;-58
2021/03/26 07:20:43;;;;;;;20.98;14.48;;;;;;;12.51;42.44;99796.75;5057953;28;20271;-55
2021/03/26 07:23:33;;;;;;;15.82;11.32;;;;;;;12.62;43.12;99848.44;5064821;28;20211;-56
2021/03/26 07:26:24;;;;;;;13.55;10.73;;;;;;;11.59;44.50;99855.28;5063601;28;20043;-56
2021/03/26 07:29:42;;;;;;;18.50;12.82;;;;;;;11.59;44.49;99818.97;5052190;28;20029;-57
2021/03/26 07:32:14;;;;;;;16.88;12.18;;;;;;;12.80;43.18;99857.47;5063207;28;20112;-57
2021/03/26 07:35:13;;;;;;;13.52;10.48;;;;;;;12.78;42.62;99815.91;5060375;28;20055;-56
2021/03/26 07:38:00;;;;;;;18.65;12.32;;;;;;;12.51;41.68;99866.91;5064784;28;20033;-57
2021/03/26 07:40:44;;;;;;;16.33;11.98;;;;;;;12.83;42.55;99871.22;5064670;28;20033;-57
2021/03/26 07:43:34;;;;;;;21.65;13.00;;;;;;;12.14;43.75;99867.84;5064920;28;20043;-57
2021/03/26 07:46:37;;;;;;;17.38;11.85;;;;;;;11.72;44.16;99822.13;5060844;28;20029;-56
2021/03/26 07:49:11;;;;;;;16.48;10.93;;;;;;;11.70;45.10;99878.34;5053887;28;20032;-57
2021/03/26 07:51:58;;;;;;;18.33;12.45;;;;;;;11.56;45.10;99882.13;5044840;28;20037;-57
2021/03/26 07:54:36;;;;;;;15.85;10.88;;;;;;;11.35;46.58;99882.59;5044920;28;20025;-56
2021/03/26 07:57:07;;;;;;;15.10;10.95;;;;;;;11.39;45.79;99881.66;5044621;28;20104;-56
2021/03/26 08:00:00;;;;;;;15.55;10.63;;;;;;;11.10;46.38;99884.84;5044880;28;20033;-56
2021/03/26 08:02:45;;;;;;;16.05;11.45;;;;;;;10.99;46.34;99883.34;5063117;28;20083;-56
2021/03/26 08:05:36;;;;;;;17.65;11.75;;;;;;;11.01;46.83;99888.47;5063868;28;20302;-56
2021/03/26 08:08:23;;;;;;;16.90;12.18;;;;;;;10.97;46.49;99872.13;5054354;28;20043;-56
2021/03/26 08:10:55;;;;;;;19.35;12.40;;;;;;;11.21;45.97;99820.66;5060747;28;20033;-56
2021/03/26 08:13:39;;;;;;;15.55;11.52;;;;;;;11.94;45.26;99866.59;5063350;28;20028;-57
2021/03/26 08:16:36;;;;;;;18.88;12.07;;;;;;;12.21;45.41;99869.41;5055858;28;20056;-56
2021/03/26 08:19:15;;;;;;;15.57;12.07;;;;;;;12.63;45.02;99871.78;5062736;28;20318;-56
2021/03/26 08:21:44;;;;;;;15.00;11.43;;;;;;;11.58;44.68;99864.78;5060640;28;20306;-58
2021/03/26 08:24:28;;;;;;;18.23;11.80;;;;;;;11.78;46.66;99863.47;5063842;28;20021;-56
2021/03/26 08:27:12;;;;;;;19.90;11.57;;;;;;;12.46;45.33;99872.22;5056981;28;20028;-56
2021/03/26 08:29:48;;;;;;;16.10;10.70;;;;;;;12.08;44.31;99863.66;5056724;28;20028;-56
2021/03/26 08:32:33;;;;;;;14.38;10.63;;;;;;;11.58;45.45;99866.53;5060001;28;20119;-56
2021/03/26 08:35:30;;;;;;;14.77;9.73;;;;;;;12.73;44.01;99862.84;5057254;28;20036;-56
2021/03/26 08:38:14;;;;;;;15.88;12.23;;;;;;;11.63;45.76;99863.81;5061521;28;20337;-56
2021/03/26 08:40:57;;;;;;;18.02;11.98;;;;;;;12.56;44.78;99859.84;5061037;28;20055;-56
2021/03/26 08:43:25;;;;;;;16.27;11.32;;;;;;;12.61;44.83;99857.97;5060698;28;20056;-56
2021/03/26 08:46:20;;;;;;;19.88;12.05;;;;;;;12.71;43.88;99858.56;5057052;28;20025;-56
2021/03/26 08:49:23;;;;;;;17.52;11.10;;;;;;;12.50;43.53;99857.38;5055878;28;20032;-56
2021/03/26 08:52:19;;;;;;;17.45;12.25;;;;;;;12.64;44.16;99854.44;5056083;28;20032;-56
2021/03/26 08:55:03;;;;;;;18.13;12.13;;;;;;;12.07;45.60;99856.75;5062835;28;20028;-56
2021/03/26 08:57:40;;;;;;;17.75;12.02;;;;;;;12.17;45.63;99859.97;5062436;28;20032;-56
2021/03/26 09:00:44;;;;;;;18.98;12.73;;;;;;;11.71;46.93;99802.25;5052918;28;20052;-56
2021/03/26 09:03:22;;;;;;;16.90;10.30;;;;;;;12.00;45.85;99868.19;5051766;28;20030;-56
2021/03/26 09:06:36;;;;;;;16.70;10.35;;;;;;;11.59;46.29;99863.06;5054165;28;20056;-56
2021/03/26 09:09:25;;;;;;;16.27;10.10;;;;;;;11.85;46.57;99869.38;5047152;28;20029;-56
2021/03/26 09:12:33;;;;;;;17.33;10.65;;;;;;;11.80;46.58;99869.50;5056676;28;20041;-56
2021/03/26 09:15:05;;;;;;;15.35;10.90;;;;;;;11.74;45.42;99865.31;5060009;28;20074;-55
2021/03/26 09:17:48;;;;;;;15.65;10.48;;;;;;;11.61;47.46;99858.66;5062376;28;20025;-56
2021/03/26 09:20:37;;;;;;;14.85;9.95;;;;;;;12.08;47.34;99866.25;5060295;28;20069;-56
2021/03/26 09:23:41;;;;;;;17.90;11.10;;;;;;;12.18;46.51;99859.09;5060970;28;20045;-56
2021/03/26 09:26:19;;;;;;;15.80;10.88;;;;;;;11.85;46.37;99866.78;5041831;28;20058;-57
2021/03/26 09:28:52;;;;;;;14.65;10.18;;;;;;;11.95;46.13;99815.53;5054892;28;20021;-56
2021/03/26 09:31:41;;;;;;;20.67;12.20;;;;;;;11.83;46.53;99830.50;5054313;28;20036;-57
2021/03/26 09:34:39;;;;;;;14.93;10.50;;;;;;;11.80;46.77;99832.28;5056615;28;20025;-56
2021/03/26 09:37:08;;;;;;;16.83;10.70;;;;;;;12.14;46.40;99868.72;5055191;28;20052;-57
2021/03/26 09:39:36;;;;;;;15.60;10.35;;;;;;;12.02;45.87;99872.44;5061812;28;20029;-56
2021/03/26 09:42:20;;;;;;;19.85;10.25;;;;;;;12.14;46.92;99866.13;5062152;28;20029;-55
2021/03/26 09:44:58;;;;;;;19.13;10.23;;;;;;;12.21;46.56;99861.59;5061829;28;20025;-55
2021/03/26 09:47:38;;;;;;;14.60;9.43;;;;;;;12.29;45.73;99843.25;5061962;28;20033;-55
2021/03/26 09:50:27;;;;;;;17.83;10.68;;;;;;;12.08;46.50;99864.53;5061938;28;20033;-56
2021/03/26 09:52:56;;;;;;;16.15;11.50;;;;;;;11.54;46.25;99807.81;5055260;28;20036;-55
2021/03/26 09:55:27;;;;;;;14.38;11.10;;;;;;;11.02;47.14;99812.44;5062440;28;20041;-55
2021/03/26 09:58:15;;;;;;;22.17;11.57;;;;;;;11.64;47.40;99862.94;5062256;28;20322;-56
2021/03/26 10:00:55;;;;;;;20.55;11.88;;;;;;;11.39;47.50;99817.66;5061836;28;20391;-56
2021/03/26 10:03:21;;;;;;;17.60;12.10;;;;;;;11.46;47.75;99854.69;5062137;28;20037;-56
2021/03/26 10:05:59;;;;;;;16.20;11.40;;;;;;;11.14;47.90;99865.75;5062050;28;20043;-56
2021/03/26 10:11:27;;;;;;;14.02;10.63;;;;;;;10.85;48.14;99810.22;5065834;28;20325;-55
2021/03/26 10:13:57;;;;;;;16.63;11.57;;;;;;;11.04;49.03;99865.09;5066129;28;20029;-56
2021/03/26 10:16:35;;;;;;;17.35;11.35;;;;;;;11.21;48.99;99862.16;5056605;28;20029;-55
2021/03/26 10:19:15;;;;;;;16.25;12.55;;;;;;;10.92;49.48;99863.63;5064928;28;20024;-55
2021/03/26 10:21:53;;;;;;;14.32;9.57;;;;;;;11.25;48.29;99865.53;5065991;28;20075;-56
2021/03/26 10:24:33;;;;;;;10.38;7.60;;;;;;;11.54;47.95;99867.47;5055309;28;20029;-56
2021/03/26 10:27:17;;;;;;;12.27;7.90;;;;;;;11.27;47.43;99843.03;5064689;28;20029;-55
2021/03/26 10:29:59;;;;;;;12.85;7.68;;;;;;;11.29;47.11;99852.47;5062008;28;20036;-56
2021/03/26 10:32:32;;;;;;;9.43;7.53;;;;;;;11.08;47.35;99793.31;5062595;28;20257;-55
2021/03/26 10:35:09;;;;;;;9.82;7.75;;;;;;;11.37;47.11;99842.78;5066247;28;20036;-55
2021/03/26 10:37:47;;;;;;;11.27;7.57;;;;;;;11.04;47.27;99846.94;5065910;28;20379;-56
2021/03/26 10:40:40;;;;;;;12.35;8.70;;;;;;;11.03;47.64;99824.50;5065910;28;20032;-55
2021/03/26 10:43:16;;;;;;;11.20;8.68;;;;;;;10.80;48.44;99802.53;5065063;28;20195;-55
2021/03/26 10:46:07;;;;;;;13.52;7.93;;;;;;;11.40;47.17;99847.03;5052814;28;20299;-55
2021/03/26 10:48:55;;;;;;;10.30;6.82;;;;;;;11.16;46.79;99792.28;5054226;28;20082;-56
2021/03/26 10:51:36;;;;;;;10.15;6.43;;;;;;;11.65;47.08;99843.91;5059331;28;20091;-55
2021/03/26 10:54:02;;;;;;;11.52;7.00;;;;;;;11.49;46.58;99843.41;5065580;28;20268;-55
2021/03/26 10:56:51;;;;;;;14.02;7.70;;;;;;;11.24;46.81;99838.75;5065479;28;20036;-55
2021/03/26 11:00:00;;;;;;;9.43;6.68;;;;;;;11.33;46.20;99785.84;5064807;28;20063;-54
2021/03/26 11:02:30;;;;;;;9.35;6.53;;;;;;;11.68;45.97;99828.25;5057158;28;20032;-55
2021/03/26 11:05:08;;;;;;;11.05;6.88;;;;;;;11.70;46.57;99832.53;5065342;28;20097;-55
2021/03/26 11:07:41;;;;;;;9.30;6.03;;;;;;;11.31;45.75;99809.22;5060070;28;20040;-55
2021/03/26 11:10:16;;;;;;;10.15;6.18;;;;;;;11.44;45.15;99804.59;5060111;28;20444;-54
2021/03/26 11:12:49;;;;;;;12.73;6.07;;;;;;;11.23;46.40;99831.88;5060205;28;20094;-54
2021/03/26 11:15:20;;;;;;;9.00;6.03;;;;;;;11.48;46.28;99839.94;5064889;28;20036;-54
2021/03/26 11:18:17;;;;;;;8.45;5.75;;;;;;;11.64;45.12;99832.66;5061375;28;20028;-56
2021/03/26 11:20:43;;;;;;;8.02;6.03;;;;;;;11.50;46.61;99834.72;5064541;28;20037;-55
2021/03/26 11:23:38;;;;;;;10.45;6.45;;;;;;;11.63;46.38;99845.66;5065069;28;20025;-55
2021/03/26 11:26:04;;;;;;;9.15;6.60;;;;;;;11.37;47.36;99836.75;5064735;28;20033;-55
2021/03/26 11:28:40;;;;;;;10.00;6.30;;;;;;;11.52;46.48;99841.59;5064825;28;20071;-55
2021/03/26 11:31:34;;;;;;;8.15;6.70;;;;;;;11.75;46.70;99835.00;5054285;28;20025;-55
2021/03/26 11:34:26;;;;;;;9.77;6.80;;;;;;;11.60;47.05;99835.38;5056989;28;20035;-55
2021/03/26 11:36:57;;;;;;;9.82;6.75;;;;;;;11.60;47.35;99841.44;5057241;28;20249;-55
2021/03/26 11:39:40;;;;;;;10.82;7.20;;;;;;;11.31;46.88;99796.25;5058151;28;20107;-55
2021/03/26 11:42:06;;;;;;;12.20;7.80;;;;;;;11.67;46.65;99837.78;5059492;28;20138;-55
2021/03/26 11:44:38;;;;;;;12.52;8.30;;;;;;;11.04;47.75;99775.25;5056497;28;20241;-55
2021/03/26 11:47:27;;;;;;;10.75;7.65;;;;;;;11.69;47.63;99830.81;5060190;28;20033;-55
2021/03/26 11:50:03;;;;;;;12.73;8.48;;;;;;;11.38;46.96;99781.41;5055232;28;20049;-55
2021/03/26 11:52:41;;;;;;;11.10;8.05;;;;;;;11.13;48.00;99838.13;5056917;28;20048;-56
2021/03/26 11:55:29;;;;;;;10.38;8.10;;;;;;;11.21;47.73;99829.28;5058526;28;20017;-55
2021/03/26 11:58:00;;;;;;;12.65;8.07;;;;;;;11.33;48.29;99833.38;5061502;28;20326;-56
2021/03/26 12:00:30;;;;;;;11.80;8.10;;;;;;;11.01;47.41;99779.63;5061516;28;20323;-55
2021/03/26 12:03:20;;;;;;;14.27;7.90;;;;;;;11.30;48.23;99838.63;5064279;28;20037;-55
2021/03/26 12:06:01;;;;;;;9.93;7.50;;;;;;;11.35;48.12;99834.19;5062119;28;20071;-57
2021/03/26 12:08:29;;;;;;;10.98;7.45;;;;;;;11.34;47.92;99836.81;5058070;28;20061;-56
2021/03/26 12:11:03;;;;;;;13.43;8.43;;;;;;;10.76;48.32;99789.66;5063528;28;20333;-56
2021/03/26 12:13:44;;;;;;;10.35;7.50;;;;;;;11.08;47.70;99840.81;5063567;28;20310;-56
2021/03/26 12:16:21;;;;;;;12.17;7.03;;;;;;;11.46;47.43;99833.94;5064301;28;20064;-56
2021/03/26 12:18:55;;;;;;;11.95;7.18;;;;;;;11.42;47.97;99814.16;5058336;28;20438;-58
2021/03/26 12:21:41;;;;;;;9.05;6.35;;;;;;;11.61;47.04;99831.88;5060311;28;20029;-56
2021/03/26 12:24:40;;;;;;;9.65;5.97;;;;;;;11.50;46.30;99830.41;5061290;28;20033;-56
2021/03/26 12:27:12;;;;;;;8.90;7.07;;;;;;;11.55;46.04;99835.47;5070946;28;20045;-56
2021/03/26 12:30:06;;;;;;;8.65;6.38;;;;;;;11.58;46.02;99823.28;5063561;28;20112;-56